Belk, AL

11:53 PM CDT on July 28, 2014 (GMT -0500)
Aberdeen / Amory (KM40) Elev 223 ft | 33.87 °N, 88.49 °W | Change Station

Current weather conditions updated -68 second ago

Clear
Clear
68 °F
Feels Like 68 °F
N
0
Wind Variable Wind from North

Tomorrow is forecast to be Cooler than today.

Today
High -- | Low -- °F
--% Chance of Precip.
Yesterday
High -- | Low -- °F
Precip. -- in
6:01 AM 7:54 PM
Waxing Crescent, 5% visible
Pressure 30.06 in
Visibility 8.0 miles
Clouds Clear
Dew Point 52 °F
Humidity 56%
Rainfall 0.00 in
Snow Depth Not available.
UV 0 out of 12
Pollen 4.90 out of 12
Ozone Good
PM2.5 Good
Flu Activity Not available.
METAR KM40 290455Z AUTO 00000KT 8SM CLR 20/11 A3006 RMK AO2

More Conditions Fewer Conditions

Pressure 30.06 in
Visibility 8.0 miles
Clouds Clear
Dew Point 52 °F
Humidity 56%
Rainfall 0.00 in
Snow Depth Not available.
UV 0 out of 12
Pollen 4.90 out of 12
Ozone Good
PM2.5 Good
Flu Activity Not available.
METAR KM40 290455Z AUTO 00000KT 8SM CLR 20/11 A3006 RMK AO2

More Conditions Fewer Conditions

10-Day Weather Forecast

Almanac

Astronomy

Jul. 28, 2014 Rise Set
Actual Time 6:01 AM CDT 7:54 PM CDT
Civil Twilight 5:33 AM CDT 8:22 PM CDT
Nautical Twilight 5:00 AM CDT 8:55 PM CDT
Astronomical Twilight 4:24 AM CDT 9:31 PM CDT
Moon 7:34 AM CDT (7/28) 8:45 PM CDT (7/28)
Length of Visible Light 14h 48m
Length of Day
13h 53m
Tomorrow will be 1m 28s shorter.
Waxing Crescent, 5% of the Moon is Illuminated
Jul 29
Waxing Crescent
Aug 3
First Quarter
Aug 10
Full
Aug 17
Last Quarter
Aug 25
New

Yesterday's Extremes

State Highs State Lows

Community

WunderPhotos

Upload Photos

1,738,634 photos uploaded!

Nearby

Air Quality

  Air Quality AQ Index Pollutant
Yesterday Good
PM10
Yesterday Good
OZONE
Current Good
PM2.5
Current Good
OZONE
Monday Good
PM2.5
Monday Good
OZONE
Tuesday Good
OZONE
Tuesday Good
PM2.5

Snow Depth

Station Depth Elevation
No new snow has been reported.

Earthquake Activity

City Distance Mag. Time & Date
No recent earthquake activity has been reported nearby.
Minimum magnitude displayed is 2.5.

Coastal Water Temperatures

Place Temperature
No Stations Reporting

Nearby Weather Stations

Station Location Temp. Dew Point Humidity Wind Precip. Elev Updated Type
Vernon Alabama, Sulligent, AL 67.9 °F 66 °F 92% NNE  at  0.0 mph 0.00 in / hr 372 ft 11:50 PM CDT Normal
Shiloh, Steens, MS 68.0 °F 64 °F 88% WNW  at  1.1 mph - / hr 276 ft 11:42 PM CDT Normal
Lawrence St., Caledonia, MS 68.7 °F 66 °F 91% NNW  at  0.0 mph - / hr 295 ft 11:40 PM CDT Normal

Show More Stations Show Fewer Stations